Time;durP1;ratioP1;P1;durP2;ratioP2;P2;SDS_P1;SDS_P2;PMS_P1;PMS_P2;Temp;Humidity;BMP_temperature;BMP_pressure;BME280_temperature;BME280_humidity;BME280_pressure;Samples;Min_cycle;Max_cycle;Signal;HPM_P1;HPM_P2
2023/06/20 00:02:24;;;;;;;21.15;19.05;;;;;;;21.73;70.87;101029.88;5112366;28;20470;-60
2023/06/20 00:04:49;;;;;;;20.42;18.42;;;;;;;21.77;69.50;101028.56;5112315;28;20031;-60
2023/06/20 00:07:15;;;;;;;22.58;20.27;;;;;;;21.78;71.77;101040.25;5112263;28;20033;-60
2023/06/20 00:09:40;;;;;;;23.42;19.48;;;;;;;21.85;69.66;101033.13;5112046;28;20383;-61
2023/06/20 00:12:06;;;;;;;22.92;18.48;;;;;;;21.88;71.35;101038.22;5093705;28;20020;-60
2023/06/20 00:14:31;;;;;;;20.83;18.92;;;;;;;21.71;71.05;101025.69;5093976;28;20088;-61
2023/06/20 00:16:59;;;;;;;19.45;17.35;;;;;;;21.84;70.15;101022.47;5111525;28;20485;-60
2023/06/20 00:19:25;;;;;;;22.15;18.15;;;;;;;21.73;70.95;101023.63;5112222;28;20102;-60
2023/06/20 00:21:50;;;;;;;21.67;18.33;;;;;;;21.83;70.68;101027.06;5112149;28;20066;-61
2023/06/20 00:24:16;;;;;;;22.05;17.33;;;;;;;21.89;69.77;101029.09;5111964;28;20554;-60
2023/06/20 00:26:41;;;;;;;20.95;17.70;;;;;;;21.86;69.54;101029.44;5111659;28;20032;-60
2023/06/20 00:29:07;;;;;;;19.38;17.30;;;;;;;21.74;69.60;101028.91;5094059;28;20407;-61
2023/06/20 00:31:32;;;;;;;19.58;17.75;;;;;;;21.80;69.05;101031.97;5112853;28;20099;-60
2023/06/20 00:33:58;;;;;;;19.85;17.30;;;;;;;21.80;69.13;101018.44;5116316;28;20034;-60
2023/06/20 00:36:25;;;;;;;18.73;16.88;;;;;;;21.77;69.77;101017.75;5115942;28;20100;-60
2023/06/20 00:38:55;;;;;;;24.27;17.73;;;;;;;21.78;68.48;101026.69;5116130;28;20030;-60
2023/06/20 00:41:21;;;;;;;23.13;16.88;;;;;;;21.74;68.54;101022.66;5116352;27;20023;-60
2023/06/20 00:43:50;;;;;;;18.55;16.70;;;;;;;21.73;68.70;101026.34;5136382;27;20059;-60
2023/06/20 00:46:23;;;;;;;20.55;17.70;;;;;;;21.79;68.27;101028.38;5105730;28;20027;-60
2023/06/20 00:48:49;;;;;;;18.88;16.85;;;;;;;21.64;68.89;101021.91;5097752;28;20027;-60
2023/06/20 00:51:16;;;;;;;21.02;17.38;;;;;;;21.73;68.93;101015.50;5097949;28;20027;-60
2023/06/20 00:53:43;;;;;;;18.75;16.85;;;;;;;21.68;69.61;101020.59;5108424;28;20058;-60
2023/06/20 00:56:15;;;;;;;19.50;17.38;;;;;;;21.62;68.89;101016.69;5114404;28;20097;-60
2023/06/20 00:58:41;;;;;;;20.42;18.33;;;;;;;21.67;68.28;101014.31;5115599;27;20143;-60
2023/06/20 01:01:06;;;;;;;22.45;17.95;;;;;;;21.63;69.20;101012.13;5115239;28;20033;-60
2023/06/20 01:03:33;;;;;;;18.30;16.48;;;;;;;21.63;69.33;101002.13;5097354;28;20053;-60
2023/06/20 01:06:22;;;;;;;17.33;15.52;;;;;;;21.48;70.07;101014.59;5096541;28;20020;-60
2023/06/20 01:08:56;;;;;;;19.88;16.02;;;;;;;21.61;69.29;101006.84;5113752;27;20451;-60
2023/06/20 01:11:29;;;;;;;21.85;17.50;;;;;;;21.48;69.31;101001.91;5111864;28;20098;-60
2023/06/20 01:13:57;;;;;;;19.45;17.35;;;;;;;21.47;68.57;100999.34;5115515;28;20386;-59
2023/06/20 01:16:37;;;;;;;18.45;16.58;;;;;;;21.54;68.84;101005.81;5115362;27;20031;-60
2023/06/20 01:19:09;;;;;;;19.65;16.92;;;;;;;21.54;68.64;101001.25;5113490;28;20031;-60
2023/06/20 01:21:41;;;;;;;20.35;16.85;;;;;;;21.59;67.94;101014.31;5115160;28;20023;-60
2023/06/20 01:24:07;;;;;;;20.33;16.65;;;;;;;21.57;68.59;101001.94;5097071;28;20031;-59
2023/06/20 01:26:40;;;;;;;19.58;16.30;;;;;;;21.52;69.28;100997.84;5114411;28;20386;-60
2023/06/20 01:29:12;;;;;;;18.25;16.05;;;;;;;21.53;68.91;100999.56;5114273;28;20096;-60
2023/06/20 01:31:42;;;;;;;18.25;16.55;;;;;;;21.51;68.09;100996.19;5094388;28;20031;-60
2023/06/20 01:34:15;;;;;;;20.38;16.95;;;;;;;21.55;68.25;100992.13;5083448;28;20040;-61
2023/06/20 01:36:42;;;;;;;19.00;17.08;;;;;;;21.59;68.00;100989.06;5114050;28;20420;-61
2023/06/20 01:39:16;;;;;;;17.55;15.85;;;;;;;21.54;68.30;100989.59;5112855;28;20035;-60
2023/06/20 01:41:44;;;;;;;18.30;16.40;;;;;;;21.38;69.20;100998.47;5098603;28;20028;-60
2023/06/20 01:44:12;;;;;;;19.10;16.23;;;;;;;21.44;68.28;100989.75;5110897;28;20420;-60
2023/06/20 01:46:38;;;;;;;23.95;16.92;;;;;;;21.45;67.79;100980.59;5094976;28;20027;-61
2023/06/20 01:49:05;;;;;;;18.20;16.02;;;;;;;21.44;68.61;100980.75;5105149;28;20031;-60
2023/06/20 01:51:33;;;;;;;17.73;15.32;;;;;;;21.47;67.60;100978.59;5095135;28;20475;-60
2023/06/20 01:54:05;;;;;;;18.13;16.33;;;;;;;21.58;67.86;100976.56;5111220;28;20031;-60
2023/06/20 01:56:32;;;;;;;17.15;15.18;;;;;;;21.51;66.99;100970.97;5095261;28;20442;-60
2023/06/20 01:59:00;;;;;;;18.23;16.33;;;;;;;21.39;67.62;100970.44;5113696;28;20039;-60
2023/06/20 02:01:26;;;;;;;18.55;16.52;;;;;;;21.39;67.56;100972.28;5095005;28;20023;-60
2023/06/20 02:03:54;;;;;;;17.65;15.80;;;;;;;21.34;67.80;100972.75;5112676;28;20153;-61
2023/06/20 02:06:21;;;;;;;18.43;15.40;;;;;;;21.28;68.15;100959.88;5112022;28;20055;-60
2023/06/20 02:08:48;;;;;;;17.63;15.63;;;;;;;21.29;68.50;100962.41;5112445;28;20032;-61
2023/06/20 02:11:14;;;;;;;17.98;16.02;;;;;;;21.41;67.04;100968.38;5113506;28;20073;-60
2023/06/20 02:13:43;;;;;;;17.50;15.80;;;;;;;21.38;66.49;100965.16;5113306;28;20047;-60
2023/06/20 02:16:11;;;;;;;17.15;15.38;;;;;;;21.32;66.02;100964.81;5094495;28;20023;-60
2023/06/20 02:18:38;;;;;;;17.67;15.68;;;;;;;21.33;65.66;100966.50;5094583;28;20036;-60
2023/06/20 02:21:13;;;;;;;17.67;15.88;;;;;;;21.40;66.06;100958.59;5103516;28;20031;-60
2023/06/20 02:23:39;;;;;;;17.40;15.65;;;;;;;21.30;66.18;100956.00;5111705;28;20087;-61
2023/06/20 02:26:10;;;;;;;18.23;16.02;;;;;;;21.31;66.83;100967.66;5111491;28;20027;-60
2023/06/20 02:28:44;;;;;;;17.42;15.27;;;;;;;21.37;66.87;100963.47;5095808;28;20088;-60
2023/06/20 02:31:15;;;;;;;15.32;13.80;;;;;;;21.27;66.90;100966.31;5112423;28;20028;-60
2023/06/20 02:33:42;;;;;;;16.23;14.63;;;;;;;21.26;66.95;100968.13;5112819;28;20034;-60
2023/06/20 02:36:08;;;;;;;18.13;16.23;;;;;;;21.21;67.15;100973.22;5094469;28;20035;-61
2023/06/20 02:38:34;;;;;;;18.92;14.48;;;;;;;21.19;68.72;100971.69;5112847;28;20031;-60
2023/06/20 02:41:00;;;;;;;16.95;15.15;;;;;;;21.16;67.03;100972.84;5084412;28;20119;-60
2023/06/20 02:43:25;;;;;;;17.58;15.80;;;;;;;21.10;68.59;100965.38;5094173;28;20131;-60
2023/06/20 02:46:06;;;;;;;16.88;14.95;;;;;;;21.20;66.90;100976.06;5106611;28;20016;-60
2023/06/20 02:48:46;;;;;;;18.75;14.55;;;;;;;21.23;65.74;100971.16;5094680;28;20042;-61
2023/06/20 02:51:23;;;;;;;17.58;15.75;;;;;;;21.15;65.98;100967.59;5099799;28;20027;-61
2023/06/20 02:54:01;;;;;;;16.10;14.43;;;;;;;21.15;65.95;100967.59;5093023;28;20059;-60
2023/06/20 02:56:29;;;;;;;16.20;14.63;;;;;;;21.15;65.54;100973.88;5086434;28;20035;-60
2023/06/20 02:58:59;;;;;;;17.98;14.43;;;;;;;21.19;66.36;100963.56;5103977;28;20102;-60
2023/06/20 03:01:27;;;;;;;16.23;14.55;;;;;;;21.20;65.75;100970.66;5111113;28;20027;-60
2023/06/20 03:03:55;;;;;;;20.63;15.07;;;;;;;21.23;65.19;100971.16;5094305;28;20027;-61
2023/06/20 03:06:26;;;;;;;16.67;14.43;;;;;;;21.11;65.34;100953.53;5079795;28;20077;-60
2023/06/20 03:08:54;;;;;;;17.10;15.32;;;;;;;21.17;65.62;100949.34;5112160;28;20027;-60
2023/06/20 03:11:21;;;;;;;16.80;14.20;;;;;;;21.08;66.26;100956.56;5112422;28;20030;-61
2023/06/20 03:13:47;;;;;;;17.75;15.15;;;;;;;21.09;65.53;100959.13;5112006;28;20031;-61
2023/06/20 03:16:12;;;;;;;19.85;15.70;;;;;;;21.07;65.92;100952.19;5110785;28;20076;-60
2023/06/20 03:18:38;;;;;;;16.80;14.38;;;;;;;20.92;66.83;100932.19;5112395;28;20492;-60
2023/06/20 03:21:04;;;;;;;16.83;15.18;;;;;;;21.06;66.41;100954.06;5112197;28;20028;-60
2023/06/20 03:23:30;;;;;;;19.08;16.00;;;;;;;21.09;65.29;100944.75;5109522;28;20024;-60
2023/06/20 03:25:56;;;;;;;16.35;14.68;;;;;;;20.99;66.80;100942.16;5110073;28;20027;-60
2023/06/20 03:28:22;;;;;;;16.27;14.57;;;;;;;21.03;66.42;100958.91;5112408;28;20019;-61
2023/06/20 03:30:50;;;;;;;19.98;15.85;;;;;;;20.96;66.48;100953.31;5092324;28;20031;-61
2023/06/20 03:33:15;;;;;;;16.33;14.63;;;;;;;20.85;67.22;100959.88;5113401;27;20394;-60
2023/06/20 03:35:41;;;;;;;17.38;15.65;;;;;;;20.93;66.53;100964.44;5087621;28;20026;-61
2023/06/20 03:38:06;;;;;;;16.52;14.85;;;;;;;20.96;66.41;100963.28;5092588;28;20150;-61
2023/06/20 03:40:32;;;;;;;16.23;14.52;;;;;;;20.84;66.63;100968.13;5098630;28;20115;-61
2023/06/20 03:43:00;;;;;;;17.60;15.23;;;;;;;20.82;66.98;100972.84;5108192;28;20033;-61
2023/06/20 03:45:25;;;;;;;16.83;15.05;;;;;;;20.74;67.22;100987.16;5104044;28;20633;-61
2023/06/20 03:47:51;;;;;;;16.88;15.15;;;;;;;20.57;68.29;100988.06;5111496;28;20059;-60
2023/06/20 03:50:16;;;;;;;16.95;15.23;;;;;;;20.69;67.93;100997.59;5112240;28;20448;-61
2023/06/20 03:52:42;;;;;;;19.85;16.58;;;;;;;20.78;67.87;100991.25;5111066;28;20478;-61
2023/06/20 03:55:08;;;;;;;15.75;14.15;;;;;;;20.56;69.07;100997.16;5110908;28;20028;-61
2023/06/20 03:57:33;;;;;;;18.75;14.38;;;;;;;20.72;68.98;100994.59;5091123;28;20024;-61
2023/06/20 03:59:58;;;;;;;16.23;14.52;;;;;;;20.70;68.93;100995.75;5110656;28;20644;-61
2023/06/20 04:02:24;;;;;;;15.80;14.30;;;;;;;20.73;68.15;100996.28;5111493;28;20580;-61
2023/06/20 04:04:49;;;;;;;15.63;13.98;;;;;;;20.75;68.03;100998.81;5109394;28;20023;-61
2023/06/20 04:07:18;;;;;;;19.95;14.52;;;;;;;20.68;69.43;101003.16;5075480;28;20111;-61
2023/06/20 04:09:50;;;;;;;18.08;15.05;;;;;;;20.61;69.25;101002.94;5095030;28;20509;-60
2023/06/20 04:12:18;;;;;;;16.58;14.38;;;;;;;20.61;70.10;100994.84;5104454;28;20474;-61
2023/06/20 04:14:43;;;;;;;17.75;15.75;;;;;;;20.59;70.21;100988.78;5110040;28;20035;-60
2023/06/20 04:17:11;;;;;;;17.23;15.52;;;;;;;20.55;69.74;100985.50;5112231;28;20012;-61
2023/06/20 04:19:37;;;;;;;17.83;16.10;;;;;;;20.64;69.60;100987.25;5111581;28;20459;-61
2023/06/20 04:22:02;;;;;;;17.27;15.50;;;;;;;20.61;70.41;100984.88;5093766;28;20031;-61
2023/06/20 04:24:28;;;;;;;16.63;15.18;;;;;;;20.60;70.24;100985.88;5094055;28;20027;-60
2023/06/20 04:26:54;;;;;;;17.75;15.35;;;;;;;20.64;70.02;100962.09;5093730;28;20047;-61
2023/06/20 04:29:20;;;;;;;21.65;16.02;;;;;;;20.55;70.16;100974.69;5111925;28;20028;-59
2023/06/20 04:31:46;;;;;;;17.08;15.35;;;;;;;20.65;70.57;100966.50;5111161;28;20019;-60
2023/06/20 04:34:13;;;;;;;18.95;16.75;;;;;;;20.68;70.68;100966.19;5111262;28;20386;-61
2023/06/20 04:36:39;;;;;;;19.58;16.70;;;;;;;20.70;68.88;100964.16;5111238;28;20054;-59
2023/06/20 04:39:06;;;;;;;19.42;16.90;;;;;;;20.73;69.65;100966.53;5112072;28;20055;-60
2023/06/20 04:41:31;;;;;;;19.02;17.23;;;;;;;20.72;71.00;100969.41;5112913;28;20023;-61
2023/06/20 04:44:00;;;;;;;19.40;17.38;;;;;;;20.82;69.29;100959.31;5124482;28;20040;-59
2023/06/20 04:46:26;;;;;;;17.40;15.77;;;;;;;20.76;70.98;100949.16;5093022;28;20163;-61
2023/06/20 04:48:51;;;;;;;18.55;16.58;;;;;;;20.92;68.41;100960.06;5111614;28;20057;-61
2023/06/20 04:51:17;;;;;;;19.05;17.02;;;;;;;20.96;68.61;100953.31;5111847;28;20031;-60
2023/06/20 04:53:42;;;;;;;18.63;16.67;;;;;;;21.10;68.20;100960.81;5111596;28;20048;-60
2023/06/20 04:56:08;;;;;;;20.38;18.27;;;;;;;21.11;67.93;100956.25;5110346;28;20080;-60
2023/06/20 04:58:36;;;;;;;19.27;17.02;;;;;;;21.21;68.26;100965.09;5111872;28;20028;-60
2023/06/20 05:01:03;;;;;;;18.67;16.75;;;;;;;21.23;68.13;100948.69;5109394;28;20024;-60
2023/06/20 05:03:28;;;;;;;19.60;16.15;;;;;;;21.28;68.32;100947.19;5109271;28;20023;-60
2023/06/20 05:05:54;;;;;;;19.25;15.75;;;;;;;21.35;67.64;100939.25;5111535;28;20020;-60
2023/06/20 05:08:19;;;;;;;16.17;14.48;;;;;;;21.38;68.58;100940.81;5111730;28;20024;-60
2023/06/20 05:10:45;;;;;;;15.52;13.80;;;;;;;21.46;68.51;100938.13;5095126;28;20038;-60
2023/06/20 05:13:10;;;;;;;14.57;13.20;;;;;;;21.47;68.94;100916.34;5109661;28;20053;-60
2023/06/20 05:15:36;;;;;;;14.57;12.63;;;;;;;21.64;68.43;100928.00;5101995;28;20016;-60
2023/06/20 05:18:01;;;;;;;13.10;11.65;;;;;;;21.71;69.16;100928.22;5106159;28;20031;-60
2023/06/20 05:20:27;;;;;;;13.07;11.77;;;;;;;21.87;68.95;100927.38;5102277;28;20027;-60
2023/06/20 05:22:53;;;;;;;13.32;11.32;;;;;;;21.94;69.18;100922.97;5111867;27;20031;-60
2023/06/20 05:25:18;;;;;;;12.95;11.48;;;;;;;22.07;70.11;100927.88;5125258;27;20429;-59
2023/06/20 05:27:44;;;;;;;11.80;9.75;;;;;;;22.13;69.04;100921.78;5111654;28;20114;-60
2023/06/20 05:30:10;;;;;;;12.10;9.68;;;;;;;22.23;69.83;100919.75;5096339;28;20047;-59
2023/06/20 05:32:35;;;;;;;9.73;8.48;;;;;;;22.28;70.50;100911.97;5096353;28;20459;-60
2023/06/20 05:35:01;;;;;;;9.98;8.98;;;;;;;22.23;69.54;100907.06;5095396;28;20024;-60
2023/06/20 05:37:28;;;;;;;7.90;7.20;;;;;;;22.22;70.15;100907.25;5094604;28;20044;-60
2023/06/20 05:39:54;;;;;;;8.48;7.32;;;;;;;22.37;70.41;100915.50;5120576;27;20032;-66
2023/06/20 05:42:20;;;;;;;7.97;6.72;;;;;;;22.34;69.99;100908.56;5095423;28;20394;-66
2023/06/20 05:44:45;;;;;;;8.25;6.60;;;;;;;22.48;69.24;100914.31;5103636;28;20040;-66
2023/06/20 05:47:17;;;;;;;8.13;7.32;;;;;;;22.59;68.79;100912.09;5076636;28;20115;-66
2023/06/20 05:49:46;;;;;;;8.75;7.50;;;;;;;22.61;69.66;100912.72;5110087;28;20034;-66
2023/06/20 05:52:11;;;;;;;8.75;7.82;;;;;;;22.59;69.54;100920.22;5108268;28;20015;-66
2023/06/20 05:54:37;;;;;;;8.75;6.90;;;;;;;22.62;69.00;100919.03;5114495;28;20497;-65
2023/06/20 05:57:05;;;;;;;7.53;6.68;;;;;;;22.73;68.79;100929.47;5114635;28;20019;-66
2023/06/20 05:59:33;;;;;;;6.95;6.38;;;;;;;22.77;69.33;100938.13;5114629;28;20439;-66
2023/06/20 06:01:58;;;;;;;9.90;7.10;;;;;;;22.80;69.95;100938.63;5106092;28;20024;-65
2023/06/20 06:04:25;;;;;;;8.15;6.47;;;;;;;22.73;69.61;100945.75;5097061;28;20023;-66
2023/06/20 06:06:51;;;;;;;9.00;6.35;;;;;;;22.65;70.09;100937.66;5112449;28;20023;-66
2023/06/20 06:09:16;;;;;;;6.90;6.30;;;;;;;22.64;69.38;100944.09;5079282;28;20103;-66
2023/06/20 06:11:41;;;;;;;6.97;6.25;;;;;;;22.58;70.14;100955.63;5112600;28;20542;-66
2023/06/20 06:14:07;;;;;;;6.95;6.18;;;;;;;22.55;71.90;100947.84;5094935;28;20110;-66
2023/06/20 06:16:33;;;;;;;7.07;6.38;;;;;;;22.56;70.75;100944.09;5112246;28;20023;-65
2023/06/20 06:19:00;;;;;;;7.25;6.57;;;;;;;22.69;69.92;100949.84;5114235;28;20046;-66
2023/06/20 06:21:26;;;;;;;9.18;6.57;;;;;;;22.67;70.06;100935.59;5094035;28;20023;-66
2023/06/20 06:23:52;;;;;;;8.00;7.20;;;;;;;22.74;70.79;100927.63;5095781;28;20482;-66
2023/06/20 06:26:17;;;;;;;8.35;7.03;;;;;;;22.81;70.98;100925.91;5113823;28;20031;-66
2023/06/20 06:28:42;;;;;;;7.70;6.80;;;;;;;22.92;69.92;100928.25;5098026;28;20096;-66
2023/06/20 06:31:11;;;;;;;10.80;7.57;;;;;;;22.90;69.87;100928.41;5108514;28;20685;-66
2023/06/20 06:33:37;;;;;;;9.60;7.40;;;;;;;23.00;69.67;100927.38;5113359;28;20059;-66
2023/06/20 06:36:03;;;;;;;8.93;8.07;;;;;;;23.03;69.71;100937.88;5111231;28;20079;-65
2023/06/20 06:38:28;;;;;;;8.98;7.78;;;;;;;23.12;69.80;100956.69;5112049;28;20035;-66
2023/06/20 06:40:54;;;;;;;12.93;7.95;;;;;;;23.10;69.34;100945.16;5107352;28;20489;-67
2023/06/20 06:43:20;;;;;;;11.68;7.50;;;;;;;23.05;69.75;100933.97;5111043;28;20485;-66
2023/06/20 06:45:46;;;;;;;13.73;7.90;;;;;;;23.11;70.22;100938.69;5093360;28;20100;-66
2023/06/20 06:48:12;;;;;;;10.00;7.25;;;;;;;23.23;70.04;100922.84;5110708;28;20027;-66
2023/06/20 06:50:37;;;;;;;15.15;7.70;;;;;;;23.21;69.95;100922.22;5093217;28;20043;-66
2023/06/20 06:53:03;;;;;;;9.30;7.95;;;;;;;23.37;69.69;100928.56;5111247;28;20076;-66
2023/06/20 06:55:28;;;;;;;13.10;8.48;;;;;;;23.39;68.78;100926.53;5113801;28;20111;-68
2023/06/20 06:57:53;;;;;;;8.65;7.63;;;;;;;23.40;69.12;100933.63;5110768;28;20024;-68
2023/06/20 07:00:19;;;;;;;12.15;8.68;;;;;;;23.46;68.47;100933.75;5113167;28;20036;-68
2023/06/20 07:02:47;;;;;;;8.68;7.85;;;;;;;23.43;68.88;100936.00;5092446;28;20049;-68
2023/06/20 07:05:13;;;;;;;9.57;8.40;;;;;;;23.49;68.90;100932.56;5112484;28;20066;-68
2023/06/20 07:07:38;;;;;;;10.38;7.88;;;;;;;23.56;68.14;100933.56;5104668;27;20059;-68
2023/06/20 07:10:04;;;;;;;10.52;8.90;;;;;;;23.58;67.62;100931.47;5089982;28;20539;-68
2023/06/20 07:12:30;;;;;;;10.27;8.95;;;;;;;23.51;67.82;100934.06;5095365;27;20035;-67
2023/06/20 07:14:56;;;;;;;9.57;8.60;;;;;;;23.60;68.89;100932.16;5111004;28;20031;-68
2023/06/20 07:17:26;;;;;;;10.55;8.75;;;;;;;23.64;68.36;100925.31;5112814;28;20019;-68
2023/06/20 07:19:55;;;;;;;11.35;10.10;;;;;;;23.66;67.28;100915.13;5111960;28;20489;-68
2023/06/20 07:22:21;;;;;;;11.15;9.20;;;;;;;23.66;66.79;100912.41;5089653;28;20023;-68
2023/06/20 07:24:46;;;;;;;9.57;8.68;;;;;;;23.75;67.60;100914.06;5102054;28;20034;-68
2023/06/20 07:27:12;;;;;;;10.73;9.07;;;;;;;23.83;67.23;100920.50;5093359;28;20043;-68
2023/06/20 07:29:37;;;;;;;10.02;8.85;;;;;;;23.90;66.95;100916.84;5093311;28;20027;-68
2023/06/20 07:32:05;;;;;;;8.20;7.43;;;;;;;23.85;66.95;100918.41;5112201;28;20019;-63
2023/06/20 07:34:30;;;;;;;8.73;7.88;;;;;;;23.85;66.37;100893.97;5111223;28;20503;-62
2023/06/20 07:36:56;;;;;;;10.40;8.27;;;;;;;23.97;66.52;100901.53;5112117;27;20145;-66
2023/06/20 07:39:21;;;;;;;9.35;7.90;;;;;;;23.88;66.28;100905.31;5112138;28;20024;-67
2023/06/20 07:41:49;;;;;;;8.63;7.70;;;;;;;24.02;67.52;100898.25;5092605;28;20024;-65
2023/06/20 07:44:17;;;;;;;11.82;7.88;;;;;;;24.03;67.14;100902.63;5073760;28;20105;-66
2023/06/20 07:46:42;;;;;;;11.60;8.48;;;;;;;24.17;67.50;100904.53;5091875;28;20023;-72
2023/06/20 07:49:07;;;;;;;10.07;7.60;;;;;;;24.13;67.07;100910.56;5092891;28;20028;-69
2023/06/20 07:51:33;;;;;;;8.65;7.38;;;;;;;24.11;65.48;100923.47;5112487;28;20015;-69
2023/06/20 07:54:03;;;;;;;9.80;7.38;;;;;;;24.18;66.41;100929.88;5093995;28;20055;-58
2023/06/20 07:56:28;;;;;;;7.38;6.68;;;;;;;24.24;66.04;100924.53;5093616;28;20032;-58
2023/06/20 07:58:54;;;;;;;7.82;7.03;;;;;;;24.34;66.07;100921.53;5111318;28;20023;-58
2023/06/20 08:01:19;;;;;;;9.18;6.95;;;;;;;24.36;65.45;100926.81;5110765;28;20110;-57
2023/06/20 08:03:47;;;;;;;10.43;6.53;;;;;;;24.50;65.58;100917.00;5112553;28;20129;-58
2023/06/20 08:06:13;;;;;;;7.72;6.88;;;;;;;24.57;65.18;100904.34;5107507;28;20042;-58
2023/06/20 08:08:38;;;;;;;8.73;7.90;;;;;;;24.52;66.07;100896.75;5086836;28;20493;-58
2023/06/20 08:11:04;;;;;;;9.35;7.90;;;;;;;24.54;65.83;100900.13;5109844;28;20084;-58
2023/06/20 08:13:30;;;;;;;8.85;8.00;;;;;;;24.38;65.29;100906.53;5110369;28;20028;-58
2023/06/20 08:15:55;;;;;;;8.35;7.30;;;;;;;24.51;65.44;100908.66;5087502;28;20503;-58
2023/06/20 08:18:21;;;;;;;8.00;7.30;;;;;;;24.50;65.87;100906.97;5108232;28;20501;-58
2023/06/20 08:20:47;;;;;;;8.70;7.57;;;;;;;24.52;65.90;100894.03;5111332;28;20111;-58
2023/06/20 08:23:27;;;;;;;8.82;6.93;;;;;;;24.62;65.89;100902.78;5111707;28;20024;-58
2023/06/20 08:25:54;;;;;;;6.80;6.20;;;;;;;24.73;65.16;100908.75;5092813;28;20080;-58
2023/06/20 08:28:21;;;;;;;6.45;5.75;;;;;;;24.92;64.64;100909.03;5107343;28;20047;-58
2023/06/20 08:30:46;;;;;;;7.35;5.75;;;;;;;24.94;63.96;100903.38;5105392;28;20457;-58
2023/06/20 08:33:11;;;;;;;9.35;6.50;;;;;;;24.96;62.82;100920.38;5111622;28;20107;-58
2023/06/20 08:35:37;;;;;;;7.43;6.35;;;;;;;24.92;63.42;100916.34;5090384;28;20016;-58
2023/06/20 08:38:02;;;;;;;6.43;5.82;;;;;;;25.00;64.87;100907.22;5111013;28;20471;-58
2023/06/20 08:40:29;;;;;;;6.72;5.90;;;;;;;25.07;64.06;100908.16;5110768;28;20499;-58
2023/06/20 08:42:58;;;;;;;9.68;6.03;;;;;;;25.14;63.43;100906.38;5111696;28;20023;-58
2023/06/20 08:45:23;;;;;;;5.35;4.85;;;;;;;25.31;63.63;100910.56;5089035;28;20044;-58
2023/06/20 08:47:49;;;;;;;6.22;4.70;;;;;;;25.50;62.81;100905.53;5088888;28;20081;-58
2023/06/20 08:50:14;;;;;;;8.13;5.65;;;;;;;25.44;62.42;100909.88;5089820;28;20379;-58
2023/06/20 08:52:49;;;;;;;6.97;5.90;;;;;;;25.53;62.36;100910.59;5088839;28;20123;-58
2023/06/20 08:55:16;;;;;;;5.57;5.03;;;;;;;25.65;61.38;100911.78;5095549;28;20020;-58
2023/06/20 08:57:45;;;;;;;6.03;5.53;;;;;;;25.67;61.30;100901.53;5117944;27;20069;-64
2023/06/20 09:00:16;;;;;;;6.40;4.68;;;;;;;25.81;61.08;100903.34;5107418;27;20028;-64
2023/06/20 09:02:41;;;;;;;6.93;5.85;;;;;;;25.85;61.11;100898.38;5075227;28;20036;-64
2023/06/20 09:05:07;;;;;;;12.65;5.75;;;;;;;25.78;60.23;100901.00;5084226;28;20024;-71
2023/06/20 09:07:37;;;;;;;7.93;5.60;;;;;;;25.76;60.84;100905.81;5095412;28;20028;-58
2023/06/20 09:10:04;;;;;;;8.15;5.55;;;;;;;25.71;61.81;100891.09;5093622;28;20047;-77
2023/06/20 09:12:47;;;;;;;11.60;5.32;;;;;;;25.88;62.26;100895.25;5083579;28;20036;-69
2023/06/20 09:15:21;;;;;;;5.65;5.15;;;;;;;25.72;61.75;100895.50;5089265;28;20020;-74
2023/06/20 09:18:00;;;;;;;6.32;5.03;;;;;;;25.93;61.41;100894.69;5092164;28;20031;-64
2023/06/20 09:20:31;;;;;;;5.57;5.00;;;;;;;26.02;60.53;100899.78;5107639;28;20024;-65
2023/06/20 09:22:56;;;;;;;7.00;5.05;;;;;;;26.15;60.71;100904.50;5093505;28;20031;-65
2023/06/20 09:25:27;;;;;;;5.65;5.05;;;;;;;26.18;59.92;100920.47;5092930;28;20028;-64
2023/06/20 09:27:56;;;;;;;6.45;4.40;;;;;;;26.19;59.25;100919.44;5093994;28;20113;-64
2023/06/20 09:30:22;;;;;;;6.72;4.57;;;;;;;26.23;59.59;100912.53;5091611;28;20522;-64
2023/06/20 09:32:48;;;;;;;5.90;5.30;;;;;;;26.15;59.31;100918.16;5091679;28;20114;-65
2023/06/20 09:35:15;;;;;;;6.00;5.38;;;;;;;26.25;59.98;100915.91;5092258;28;20149;-65
2023/06/20 09:37:45;;;;;;;6.53;5.18;;;;;;;26.31;60.90;100910.72;5093925;28;20039;-64
2023/06/20 09:40:19;;;;;;;8.43;4.82;;;;;;;26.29;59.33;100919.91;5092284;28;20043;-60
2023/06/20 09:42:45;;;;;;;8.38;5.20;;;;;;;26.17;58.93;100915.22;5093432;28;20058;-60
2023/06/20 09:45:13;;;;;;;7.07;4.90;;;;;;;26.15;58.54;100920.00;5090200;28;20491;-60
2023/06/20 09:47:40;;;;;;;6.80;4.57;;;;;;;26.16;58.37;100910.81;5094098;28;20071;-60
2023/06/20 09:50:07;;;;;;;6.95;5.10;;;;;;;26.27;58.69;100907.53;5094228;28;20110;-61
2023/06/20 09:53:08;;;;;;;5.68;4.68;;;;;;;26.46;59.11;100915.00;5094387;28;20092;-60
2023/06/20 09:55:35;;;;;;;6.97;4.10;;;;;;;26.38;56.08;100909.69;5088332;28;20411;-60
2023/06/20 09:58:07;;;;;;;4.90;3.88;;;;;;;26.43;56.02;100909.94;5092826;28;20031;-60
2023/06/20 10:00:35;;;;;;;5.72;4.30;;;;;;;26.43;55.54;100909.13;5092488;28;20383;-60
2023/06/20 10:03:06;;;;;;;4.88;4.30;;;;;;;26.58;55.02;100901.69;5094012;28;20391;-60
2023/06/20 10:05:33;;;;;;;4.72;4.05;;;;;;;26.63;55.80;100910.13;5093085;28;20020;-60
2023/06/20 10:07:59;;;;;;;4.60;3.75;;;;;;;26.76;57.35;100912.06;5093557;28;20485;-60
2023/06/20 10:10:25;;;;;;;4.60;4.10;;;;;;;26.89;55.49;100920.34;5093932;28;20154;-60
2023/06/20 10:12:54;;;;;;;4.30;3.72;;;;;;;27.07;56.77;100908.88;5094364;28;20107;-60
2023/06/20 10:15:23;;;;;;;8.07;4.10;;;;;;;27.00;55.55;100898.94;5093428;28;20102;-60
2023/06/20 10:17:49;;;;;;;5.68;4.32;;;;;;;27.06;54.56;100896.28;5092957;28;20020;-60
2023/06/20 10:20:37;;;;;;;7.60;3.90;;;;;;;27.05;55.21;100891.84;5093462;28;20490;-60
2023/06/20 10:23:08;;;;;;;5.30;3.57;;;;;;;27.12;54.79;100881.78;5073407;28;20024;-60
2023/06/20 10:25:34;;;;;;;4.35;3.35;;;;;;;27.22;54.16;100883.31;5090277;28;20020;-60
2023/06/20 10:28:06;;;;;;;3.90;3.47;;;;;;;27.24;53.74;100878.47;5092478;28;20028;-60
2023/06/20 10:30:47;;;;;;;5.40;2.83;;;;;;;27.41;52.71;100874.31;5093153;28;20031;-60
2023/06/20 10:33:13;;;;;;;3.55;3.10;;;;;;;27.25;51.18;100861.06;5092680;28;20115;-60
2023/06/20 10:36:12;;;;;;;3.08;2.80;;;;;;;27.36;52.47;100855.84;5093317;28;20451;-60
2023/06/20 10:38:59;;;;;;;3.05;2.40;;;;;;;27.35;50.00;100856.03;5071024;28;20503;-59
2023/06/20 10:41:28;;;;;;;3.90;2.65;;;;;;;27.39;49.58;100852.69;5093049;28;20439;-60
2023/06/20 10:44:00;;;;;;;13.80;3.05;;;;;;;27.53;50.37;100856.28;5077737;28;20512;-60
2023/06/20 10:46:44;;;;;;;3.30;2.47;;;;;;;27.72;49.59;100851.03;5113209;28;20478;-60
2023/06/20 10:49:10;;;;;;;5.47;2.78;;;;;;;27.70;49.41;100853.13;5113444;28;20027;-60
2023/06/20 10:51:48;;;;;;;5.05;3.00;;;;;;;27.77;49.19;100854.84;5106421;28;20386;-60
2023/06/20 10:54:15;;;;;;;4.63;2.97;;;;;;;27.75;49.13;100858.81;5105663;28;20051;-59
2023/06/20 10:56:43;;;;;;;4.88;2.72;;;;;;;27.91;50.50;100849.38;5111045;28;20379;-60
2023/06/20 10:59:12;;;;;;;4.75;2.95;;;;;;;27.88;49.39;100839.69;5110009;28;20028;-60
2023/06/20 11:01:38;;;;;;;4.30;2.67;;;;;;;28.07;49.59;100835.28;5112495;28;20474;-60
2023/06/20 11:04:12;;;;;;;5.32;2.80;;;;;;;28.11;47.92;100832.97;5094938;28;20096;-59
2023/06/20 11:06:37;;;;;;;2.83;2.50;;;;;;;28.17;46.34;100832.94;5113076;28;20094;-60
2023/06/20 11:09:03;;;;;;;3.30;2.67;;;;;;;28.15;47.89;100815.94;5113322;28;20381;-60
2023/06/20 11:11:32;;;;;;;2.72;2.53;;;;;;;28.35;48.26;100825.97;5113258;28;20558;-60
2023/06/20 11:14:15;;;;;;;3.70;2.90;;;;;;;28.25;47.54;100824.53;5111754;28;20016;-60
2023/06/20 11:16:42;;;;;;;7.20;3.20;;;;;;;28.38;47.95;100826.38;5110532;28;20024;-59
2023/06/20 11:19:08;;;;;;;4.15;2.92;;;;;;;28.42;47.22;100827.66;5112686;28;20061;-59
2023/06/20 11:21:34;;;;;;;3.50;2.50;;;;;;;28.40;46.86;100813.31;5100401;28;20032;-60